createdAt,value
2019-03-19T00:03:45.153Z,1.60
2019-03-19T00:06:14.832Z,1.52
2019-03-19T00:08:46.064Z,2.47
2019-03-19T00:11:34.839Z,1.40
2019-03-19T00:14:04.600Z,1.87
2019-03-19T00:16:53.437Z,1.37
2019-03-19T00:19:23.148Z,1.40
2019-03-19T00:24:52.579Z,1.70
2019-03-19T00:27:41.423Z,1.43
2019-03-19T00:30:11.200Z,1.60
2019-03-19T00:32:40.854Z,1.20
2019-03-19T00:35:10.469Z,2.00
2019-03-19T00:37:40.081Z,2.00
2019-03-19T00:40:28.880Z,1.90
2019-03-19T00:42:58.524Z,1.52
2019-03-19T00:45:47.061Z,2.10
2019-03-19T00:48:16.632Z,1.60
2019-03-19T00:51:05.500Z,1.70
2019-03-19T00:53:35.059Z,1.53
2019-03-19T00:56:04.570Z,1.70
2019-03-19T01:04:09.971Z,1.90
2019-03-19T01:06:39.514Z,1.80
2019-03-19T01:09:09.025Z,2.00
2019-03-19T01:11:38.560Z,2.65
2019-03-19T01:14:20.292Z,2.83
2019-03-19T01:16:49.881Z,2.00
2019-03-19T01:19:19.414Z,1.90
2019-03-19T01:22:08.253Z,1.50
2019-03-19T01:24:37.816Z,1.90
2019-03-19T01:27:07.442Z,1.60
2019-03-19T01:29:56.013Z,2.13
2019-03-19T01:32:25.953Z,1.62
2019-03-19T01:34:55.931Z,1.50
2019-03-19T01:37:25.903Z,1.80
2019-03-19T01:39:55.991Z,2.42
2019-03-19T01:42:25.938Z,2.10
2019-03-19T01:44:55.981Z,1.77
2019-03-19T01:47:25.999Z,1.85
2019-03-19T01:49:55.960Z,2.42
2019-03-19T01:55:40.043Z,1.30
2019-03-19T01:58:09.587Z,2.33
2019-03-19T02:00:39.145Z,2.57
2019-03-19T02:03:08.815Z,2.13
2019-03-19T02:05:38.404Z,2.50
2019-03-19T02:08:07.981Z,1.85
2019-03-19T02:13:19.452Z,1.50
2019-03-19T02:15:49.036Z,2.67
2019-03-19T02:18:18.602Z,1.90
2019-03-19T02:20:48.163Z,1.80
2019-03-19T02:23:17.727Z,2.33
2019-03-19T02:26:15.902Z,1.80
2019-03-19T02:28:37.648Z,1.80
2019-03-19T02:31:07.205Z,1.72
2019-03-19T02:33:36.736Z,1.50
2019-03-19T02:36:07.057Z,1.80
2019-03-19T02:38:36.630Z,1.60
2019-03-19T02:41:06.276Z,1.67
2019-03-19T02:43:35.821Z,2.03
2019-03-19T02:46:05.367Z,2.07
2019-03-19T02:48:35.022Z,2.40
2019-03-19T02:51:04.586Z,2.20
2019-03-19T02:53:34.165Z,1.85
2019-03-19T02:56:20.528Z,2.60
2019-03-19T02:58:46.759Z,2.50
2019-03-19T03:01:35.606Z,2.60
2019-03-19T03:04:05.282Z,1.98
2019-03-19T03:06:34.824Z,3.27
2019-03-19T03:09:25.235Z,2.27
2019-03-19T03:17:29.669Z,1.80
2019-03-19T03:19:59.268Z,2.23
2019-03-19T03:22:28.879Z,2.67
2019-03-19T03:24:58.415Z,1.83
2019-03-19T03:27:28.013Z,2.40
2019-03-19T03:29:57.525Z,1.30
2019-03-19T03:32:27.098Z,2.93
2019-03-19T03:34:56.621Z,2.50
2019-03-19T03:40:09.451Z,2.20
2019-03-19T03:45:33.566Z,2.60
2019-03-19T03:48:03.118Z,2.27
2019-03-19T03:50:32.642Z,2.00
2019-03-19T03:56:04.870Z,2.37
2019-03-19T03:58:34.444Z,1.60
2019-03-19T04:01:16.257Z,1.50
2019-03-19T04:03:45.752Z,2.13
2019-03-19T04:06:15.431Z,2.20
2019-03-19T04:08:45.006Z,1.80
2019-03-19T04:11:14.860Z,1.80
2019-03-19T04:13:44.351Z,1.50
2019-03-19T04:16:33.231Z,1.93
2019-03-19T04:19:21.995Z,2.90
2019-03-19T04:21:51.530Z,2.10
2019-03-19T04:24:40.204Z,1.97
2019-03-19T04:27:15.878Z,1.92
2019-03-19T04:30:00.229Z,1.50
2019-03-19T04:32:40.228Z,3.23
2019-03-19T04:35:22.284Z,3.00
2019-03-19T04:37:51.808Z,3.80
2019-03-19T04:40:27.087Z,2.50
2019-03-19T04:42:57.152Z,1.95
2019-03-19T04:45:27.011Z,2.10
2019-03-19T04:47:57.079Z,3.12
2019-03-19T04:50:27.017Z,4.05
2019-03-19T04:52:57.049Z,2.75
2019-03-19T04:58:30.135Z,3.10
2019-03-19T05:00:59.680Z,4.07
2019-03-19T05:03:29.275Z,3.90
2019-03-19T05:05:59.722Z,3.50
2019-03-19T05:08:35.717Z,3.13
2019-03-19T05:11:05.332Z,2.90
2019-03-19T05:13:34.882Z,2.73
2019-03-19T05:16:04.582Z,2.50
2019-03-19T05:18:34.168Z,2.00
2019-03-19T05:21:03.758Z,2.33
2019-03-19T05:23:33.336Z,3.00
2019-03-19T05:26:02.867Z,2.07
2019-03-19T05:28:32.416Z,3.83
2019-03-19T05:34:04.544Z,2.30
2019-03-19T05:36:34.051Z,2.27
2019-03-19T05:39:15.830Z,2.20
2019-03-19T05:44:27.463Z,2.17
2019-03-19T05:46:57.442Z,1.87
2019-03-19T05:49:27.327Z,2.72
2019-03-19T05:51:57.433Z,2.75
2019-03-19T05:54:27.510Z,2.55
2019-03-19T05:56:57.393Z,3.42
2019-03-19T05:59:27.601Z,2.25
2019-03-19T06:01:57.536Z,2.15
2019-03-19T06:04:46.278Z,2.90
2019-03-19T06:07:15.852Z,2.73
2019-03-19T06:12:58.813Z,3.40
2019-03-19T06:15:28.435Z,2.37
2019-03-19T06:17:57.968Z,2.93
2019-03-19T06:20:27.656Z,3.50
2019-03-19T06:22:57.573Z,3.67
2019-03-19T06:25:27.482Z,3.00
2019-03-19T06:28:02.952Z,2.87
2019-03-19T06:30:32.473Z,2.70
2019-03-19T06:33:02.071Z,2.67
2019-03-19T06:35:31.638Z,3.63
2019-03-19T06:43:23.960Z,3.60
2019-03-19T06:45:53.525Z,2.70
2019-03-19T06:48:23.037Z,4.03
2019-03-19T06:50:52.605Z,3.57
2019-03-19T06:53:22.175Z,5.63
2019-03-19T06:55:51.740Z,2.90
2019-03-19T06:58:21.321Z,3.30
2019-03-19T07:00:50.856Z,4.77
2019-03-19T07:03:20.603Z,2.80
2019-03-19T07:05:50.150Z,3.17
2019-03-19T07:08:19.722Z,1.90
2019-03-19T07:10:49.272Z,2.80
2019-03-19T07:13:18.864Z,3.00
2019-03-19T07:15:48.405Z,3.00
2019-03-19T07:18:37.011Z,3.30
2019-03-19T07:32:23.481Z,3.33
2019-03-19T07:34:52.989Z,2.93
2019-03-19T07:37:34.491Z,2.57
2019-03-19T07:40:04.715Z,3.10
2019-03-19T07:42:34.253Z,3.23
2019-03-19T07:45:15.652Z,3.55
2019-03-19T07:47:45.208Z,2.83
2019-03-19T07:50:15.088Z,3.27
2019-03-19T07:52:44.682Z,3.80
2019-03-19T07:55:14.275Z,3.50
2019-03-19T07:57:43.783Z,2.83
2019-03-19T08:00:14.616Z,2.80
2019-03-19T08:02:44.230Z,3.30
2019-03-19T08:05:13.766Z,3.30
2019-03-19T08:07:43.306Z,3.50
2019-03-19T08:13:13.231Z,3.20
2019-03-19T08:15:42.800Z,2.90
2019-03-19T08:18:12.340Z,2.77
2019-03-19T08:20:41.939Z,3.93
2019-03-19T08:23:11.616Z,2.50
2019-03-19T08:25:41.175Z,2.50
2019-03-19T08:28:10.775Z,2.90
2019-03-19T08:30:40.409Z,2.08
2019-03-19T08:36:17.949Z,3.00
2019-03-19T08:38:47.524Z,2.03
2019-03-19T08:44:12.809Z,2.47
2019-03-19T08:46:42.390Z,2.70
2019-03-19T08:49:12.016Z,2.50
2019-03-19T08:51:41.673Z,2.27
2019-03-19T08:54:11.357Z,2.73
2019-03-19T08:56:40.971Z,2.07
2019-03-19T08:59:22.803Z,1.93
2019-03-19T09:01:52.487Z,1.63
2019-03-19T09:04:22.080Z,1.80
2019-03-19T09:06:51.778Z,2.67
2019-03-19T09:09:21.347Z,2.10
2019-03-19T09:11:50.998Z,2.57
2019-03-19T09:14:20.710Z,1.90
2019-03-19T09:16:50.309Z,3.42
2019-03-19T09:19:19.946Z,2.43
2019-03-19T09:21:49.571Z,2.33
2019-03-19T09:24:19.207Z,2.40
2019-03-19T09:26:48.798Z,2.53
2019-03-19T09:29:18.483Z,1.77
2019-03-19T09:31:48.296Z,2.13
2019-03-19T09:34:17.966Z,2.60
2019-03-19T09:36:57.027Z,2.47
2019-03-19T09:39:24.511Z,2.27
2019-03-19T09:41:54.341Z,2.00
2019-03-19T09:44:24.152Z,2.50
2019-03-19T09:46:54.652Z,3.42
2019-03-19T09:49:24.235Z,2.50
2019-03-19T09:51:54.239Z,2.33
2019-03-19T09:54:23.951Z,2.87
2019-03-19T09:56:54.582Z,2.70
2019-03-19T09:59:27.233Z,1.53
2019-03-19T10:02:20.578Z,1.93
2019-03-19T10:04:50.146Z,1.70
2019-03-19T10:07:19.830Z,1.83
2019-03-19T10:09:49.416Z,2.20
2019-03-19T10:12:25.141Z,2.25
2019-03-19T10:14:54.749Z,2.13
2019-03-19T10:17:24.427Z,2.40
2019-03-19T10:19:54.016Z,2.47
2019-03-19T10:22:23.595Z,1.97
2019-03-19T10:24:53.249Z,2.20
2019-03-19T10:27:23.006Z,2.53
2019-03-19T10:29:52.659Z,3.37
2019-03-19T10:32:22.263Z,2.05
2019-03-19T10:34:51.968Z,1.90
2019-03-19T10:37:21.640Z,2.80
2019-03-19T10:39:51.249Z,1.70
2019-03-19T10:42:20.857Z,2.47
2019-03-19T10:44:50.528Z,2.17
2019-03-19T10:47:20.102Z,2.10
2019-03-19T10:49:49.714Z,1.40
2019-03-19T10:52:19.243Z,2.77
2019-03-19T10:54:48.772Z,2.70
2019-03-19T10:57:18.407Z,1.93
2019-03-19T11:02:51.031Z,5.70
2019-03-19T11:05:20.872Z,3.73
2019-03-19T11:07:50.506Z,3.07
2019-03-19T11:13:23.141Z,2.08
2019-03-19T11:16:11.928Z,1.60
2019-03-19T11:18:41.642Z,1.37
2019-03-19T11:21:11.318Z,2.27
2019-03-19T11:23:40.987Z,1.80
2019-03-19T11:26:10.680Z,2.10
2019-03-19T11:28:40.327Z,2.30
2019-03-19T11:31:10.101Z,2.07
2019-03-19T11:33:58.848Z,1.60
2019-03-19T11:36:29.670Z,1.52
2019-03-19T11:39:21.025Z,1.50
2019-03-19T11:42:14.765Z,1.80
2019-03-19T11:44:48.506Z,1.80
2019-03-19T11:47:39.699Z,2.17
2019-03-19T11:50:55.993Z,1.80
2019-03-19T11:53:34.151Z,1.63
2019-03-19T11:56:03.836Z,1.90
2019-03-19T11:58:33.615Z,1.53
2019-03-19T12:04:16.161Z,1.50
2019-03-19T12:06:46.012Z,1.33
2019-03-19T12:09:16.242Z,1.77
2019-03-19T12:14:29.532Z,1.87
2019-03-19T12:16:59.110Z,1.50
2019-03-19T12:19:28.831Z,1.87
2019-03-19T12:21:58.686Z,2.00
2019-03-19T12:27:17.023Z,2.77
2019-03-19T12:30:09.901Z,2.10
2019-03-19T12:32:39.863Z,1.87
2019-03-19T12:35:09.911Z,2.60
2019-03-19T12:37:39.828Z,2.10
2019-03-19T12:40:11.698Z,2.07
2019-03-19T12:42:41.404Z,1.40
2019-03-19T12:45:13.051Z,1.95
2019-03-19T12:47:42.774Z,2.10
2019-03-19T12:50:14.324Z,1.47
2019-03-19T12:52:44.406Z,1.97
2019-03-19T12:58:15.467Z,2.53
2019-03-19T13:00:45.292Z,2.17
2019-03-19T13:03:15.032Z,2.70
2019-03-19T13:05:44.738Z,1.93
2019-03-19T13:08:14.440Z,2.83
2019-03-19T13:10:44.186Z,1.90
2019-03-19T13:13:14.723Z,2.33
2019-03-19T13:15:44.330Z,2.03
2019-03-19T13:18:14.503Z,2.60
2019-03-19T13:20:44.505Z,1.95
2019-03-19T13:23:14.421Z,1.90
2019-03-19T13:25:44.468Z,2.10
2019-03-19T13:28:14.140Z,2.33
2019-03-19T13:30:45.610Z,1.50
2019-03-19T13:33:21.825Z,1.77
2019-03-19T13:35:51.687Z,1.98
2019-03-19T13:38:21.605Z,1.87
2019-03-19T13:40:51.319Z,1.60
2019-03-19T13:43:20.924Z,1.60
2019-03-19T13:45:50.476Z,1.83
2019-03-19T13:48:20.352Z,2.00
2019-03-19T13:50:50.054Z,2.00
2019-03-19T13:53:19.622Z,2.00
2019-03-19T13:55:49.279Z,2.10
2019-03-19T13:58:18.859Z,1.80
2019-03-19T14:00:55.645Z,2.27
2019-03-19T14:03:39.360Z,2.35
2019-03-19T14:06:08.991Z,1.80
2019-03-19T14:08:38.653Z,1.90
2019-03-19T14:11:08.244Z,1.60
2019-03-19T14:13:37.940Z,2.77
2019-03-19T14:16:07.502Z,2.25
2019-03-19T14:18:37.076Z,1.73
2019-03-19T14:21:06.779Z,1.67
2019-03-19T14:23:36.470Z,2.50
2019-03-19T14:26:06.130Z,2.20
2019-03-19T14:28:35.785Z,2.30
2019-03-19T14:31:09.058Z,2.30
2019-03-19T14:33:47.937Z,1.90
2019-03-19T14:36:17.711Z,1.83
2019-03-19T14:38:47.657Z,1.50
2019-03-19T14:41:17.287Z,1.87
2019-03-19T14:43:49.394Z,1.73
2019-03-19T14:46:19.220Z,1.97
2019-03-19T14:48:49.133Z,1.83
2019-03-19T14:51:18.906Z,1.90
2019-03-19T14:53:48.593Z,1.57
2019-03-19T14:56:18.347Z,1.80
2019-03-19T14:58:48.134Z,1.83
2019-03-19T15:01:19.556Z,2.47
2019-03-19T15:04:08.496Z,1.40
2019-03-19T15:06:38.201Z,1.63
2019-03-19T15:09:08.150Z,1.75
2019-03-19T15:11:37.991Z,1.72
2019-03-19T15:14:07.720Z,1.87
2019-03-19T15:16:39.463Z,1.47
2019-03-19T15:19:09.532Z,1.40
2019-03-19T15:21:39.086Z,1.60
2019-03-19T15:24:08.988Z,1.67
2019-03-19T15:26:38.790Z,1.73
2019-03-19T15:29:08.547Z,1.47
2019-03-19T15:34:51.754Z,1.45
2019-03-19T15:37:21.463Z,1.17
2019-03-19T15:39:51.365Z,1.27
2019-03-19T15:42:21.176Z,1.47
2019-03-19T15:44:50.985Z,1.83
2019-03-19T15:47:20.685Z,1.67
2019-03-19T15:49:50.760Z,1.80
2019-03-19T15:52:20.602Z,1.60
2019-03-19T15:54:50.400Z,1.93
2019-03-19T15:57:20.190Z,1.63
2019-03-19T15:59:49.741Z,2.20
2019-03-19T16:02:19.666Z,1.40
2019-03-19T16:04:49.506Z,1.73
2019-03-19T16:07:20.893Z,1.47
2019-03-19T16:09:52.371Z,2.17
2019-03-19T16:12:21.970Z,1.40
2019-03-19T16:14:54.066Z,1.50
2019-03-19T16:17:23.864Z,1.70
2019-03-19T16:19:53.800Z,1.92
2019-03-19T16:22:23.409Z,2.13
2019-03-19T16:24:53.204Z,3.30
2019-03-19T16:27:23.191Z,2.52
2019-03-19T16:32:34.452Z,1.27
2019-03-19T16:35:04.335Z,1.40
2019-03-19T16:37:34.337Z,1.73
2019-03-19T16:40:04.224Z,2.20
2019-03-19T16:42:34.113Z,1.67
2019-03-19T16:45:06.687Z,2.07
2019-03-19T16:47:36.541Z,1.30
2019-03-19T16:50:08.838Z,1.43
2019-03-19T16:55:27.271Z,1.30
2019-03-19T16:57:57.088Z,1.57
2019-03-19T17:00:26.869Z,1.60
2019-03-19T17:02:59.071Z,1.80
2019-03-19T17:05:28.809Z,1.50
2019-03-19T17:07:58.487Z,1.30
2019-03-19T17:10:28.252Z,1.53
2019-03-19T17:12:57.958Z,2.27
2019-03-19T17:15:48.332Z,1.50
2019-03-19T17:18:18.018Z,1.60
2019-03-19T17:20:47.694Z,1.40
2019-03-19T17:23:17.298Z,1.30
2019-03-19T17:25:59.470Z,2.97
2019-03-19T17:28:29.005Z,1.57
2019-03-19T17:30:58.683Z,1.60
2019-03-19T17:33:28.294Z,1.47
2019-03-19T17:35:57.960Z,2.27
2019-03-19T17:38:28.771Z,1.80
2019-03-19T17:40:58.393Z,1.57
2019-03-19T17:49:11.568Z,1.90
2019-03-19T17:51:42.026Z,2.27
2019-03-19T17:54:11.762Z,2.17
2019-03-19T17:57:00.568Z,3.40
2019-03-19T17:59:30.154Z,7.80
2019-03-19T18:02:01.468Z,7.07
2019-03-19T18:04:31.250Z,8.80
2019-03-19T18:07:02.269Z,10.40
2019-03-19T18:09:31.834Z,8.83
2019-03-19T18:12:01.563Z,7.93
2019-03-19T18:14:31.218Z,7.72
2019-03-19T18:19:55.589Z,5.93
2019-03-19T18:22:25.200Z,7.57
2019-03-19T18:24:54.928Z,8.00
2019-03-19T18:27:24.717Z,7.30
2019-03-19T18:29:55.558Z,4.83
2019-03-19T18:32:35.305Z,3.60
2019-03-19T18:35:08.687Z,3.70
2019-03-19T18:37:38.398Z,4.00
2019-03-19T18:40:15.731Z,3.30
2019-03-19T18:42:45.461Z,2.77
2019-03-19T18:45:15.156Z,2.95
2019-03-19T18:47:44.923Z,2.70
2019-03-19T18:50:14.664Z,2.60
2019-03-19T18:52:44.351Z,2.50
2019-03-19T18:55:14.161Z,1.90
2019-03-19T18:57:43.990Z,3.05
2019-03-19T19:00:32.786Z,1.90
2019-03-19T19:05:43.878Z,2.10
2019-03-19T19:08:13.404Z,2.43
2019-03-19T19:10:42.914Z,2.20
2019-03-19T19:13:12.472Z,1.90
2019-03-19T19:15:42.016Z,1.90
2019-03-19T19:18:11.615Z,1.90
2019-03-19T19:20:41.099Z,1.93
2019-03-19T19:23:10.668Z,1.87
2019-03-19T19:25:40.181Z,1.70
2019-03-19T19:28:09.780Z,1.73
2019-03-19T19:33:28.013Z,3.40
2019-03-19T19:35:57.609Z,3.83
2019-03-19T19:38:27.215Z,3.20
2019-03-19T19:40:57.794Z,2.90
2019-03-19T19:43:27.402Z,3.90
2019-03-19T19:45:56.943Z,3.55
2019-03-19T19:48:26.590Z,4.20
2019-03-19T19:50:57.812Z,3.73
2019-03-19T19:53:27.446Z,3.70
2019-03-19T19:55:57.043Z,3.10
2019-03-19T19:58:26.835Z,3.17
2019-03-19T20:00:56.504Z,2.80
2019-03-19T20:03:26.248Z,3.22
2019-03-19T20:05:55.969Z,2.23
2019-03-19T20:08:25.695Z,2.50
2019-03-19T20:10:55.309Z,2.03
2019-03-19T20:13:26.825Z,2.10
2019-03-19T20:15:56.280Z,2.43
2019-03-19T20:21:19.679Z,2.50
2019-03-19T20:23:49.218Z,1.62
2019-03-19T20:26:18.752Z,1.83
2019-03-19T20:28:48.312Z,1.90
2019-03-19T20:31:17.804Z,1.90
2019-03-19T20:33:47.319Z,2.40
2019-03-19T20:36:16.915Z,2.33
2019-03-19T20:38:46.515Z,2.93
2019-03-19T20:41:16.020Z,2.30
2019-03-19T20:43:45.561Z,2.40
2019-03-19T20:46:15.150Z,2.67
2019-03-19T20:48:44.673Z,2.30
2019-03-19T20:51:14.193Z,1.70
2019-03-19T20:53:43.706Z,2.37
2019-03-19T20:56:13.199Z,2.12
2019-03-19T20:58:43.798Z,1.77
2019-03-19T21:01:44.848Z,2.03
2019-03-19T21:04:14.511Z,2.83
2019-03-19T21:06:44.040Z,2.73
2019-03-19T21:09:15.202Z,2.50
2019-03-19T21:14:46.738Z,2.40
2019-03-19T21:17:16.254Z,2.70
2019-03-19T21:19:45.774Z,2.03
2019-03-19T21:22:15.296Z,2.60
2019-03-19T21:24:44.806Z,2.93
2019-03-19T21:27:14.314Z,2.43
2019-03-19T21:29:55.781Z,2.40
2019-03-19T21:32:25.352Z,2.80
2019-03-19T21:34:54.893Z,3.80
2019-03-19T21:37:24.438Z,2.87
2019-03-19T21:39:53.955Z,2.58
2019-03-19T21:42:23.478Z,2.50
2019-03-19T21:44:53.026Z,2.20
2019-03-19T21:47:41.677Z,2.80
2019-03-19T21:50:16.776Z,2.77
2019-03-19T21:52:46.303Z,2.43
2019-03-19T21:55:16.075Z,3.10
2019-03-19T21:57:45.639Z,2.55
2019-03-19T22:00:16.398Z,2.53
2019-03-19T22:02:45.900Z,2.13
2019-03-19T22:05:15.465Z,1.77
2019-03-19T22:07:44.971Z,1.87
2019-03-19T22:10:14.675Z,2.80
2019-03-19T22:12:44.358Z,2.00
2019-03-19T22:15:15.623Z,2.03
2019-03-19T22:17:46.283Z,2.80
2019-03-19T22:20:55.657Z,1.67
2019-03-19T22:23:25.176Z,1.97
2019-03-19T22:25:54.725Z,2.40
2019-03-19T22:28:24.305Z,2.47
2019-03-19T22:30:55.465Z,2.47
2019-03-19T22:33:24.988Z,2.22
2019-03-19T22:35:54.483Z,2.00
2019-03-19T22:38:23.983Z,2.67
2019-03-19T22:40:53.546Z,2.50
2019-03-19T22:43:23.034Z,2.12
2019-03-19T22:45:52.554Z,3.10
2019-03-19T22:48:22.139Z,3.00
2019-03-19T22:50:51.681Z,2.20
2019-03-19T22:53:21.196Z,2.63
2019-03-19T22:55:50.740Z,2.67
2019-03-19T22:58:20.254Z,2.57
2019-03-19T23:01:09.068Z,2.43
2019-03-19T23:03:40.212Z,2.70
2019-03-19T23:06:09.732Z,2.70
2019-03-19T23:08:39.471Z,3.03
2019-03-19T23:11:09.411Z,2.90
2019-03-19T23:13:39.639Z,3.17
2019-03-19T23:16:09.489Z,3.52
2019-03-19T23:18:39.479Z,3.15
2019-03-19T23:21:09.543Z,3.33
2019-03-19T23:23:58.175Z,2.83
2019-03-19T23:26:46.770Z,3.07
2019-03-19T23:29:16.263Z,3.23
2019-03-19T23:31:45.792Z,2.93
2019-03-19T23:34:15.306Z,3.30
2019-03-19T23:36:44.815Z,3.33
2019-03-19T23:39:14.307Z,2.83
2019-03-19T23:41:43.861Z,3.27
2019-03-19T23:44:13.369Z,2.67
2019-03-19T23:46:42.893Z,2.67
2019-03-19T23:49:12.521Z,2.60
2019-03-19T23:51:42.039Z,2.70
2019-03-19T23:54:11.600Z,3.57
2019-03-19T23:57:00.140Z,2.80
2019-03-19T23:59:29.647Z,3.70
